createdAt,value
2018-04-01T00:00:42.148Z,96.4
2018-04-01T00:01:43.590Z,96.6
2018-04-01T00:02:45.038Z,97.1
2018-04-01T00:03:46.712Z,96.8
2018-04-01T00:04:48.306Z,96.8
2018-04-01T00:05:49.842Z,96.9
2018-04-01T00:06:51.209Z,96.8
2018-04-01T00:07:52.659Z,96.5
2018-04-01T00:08:54.282Z,96.8
2018-04-01T00:09:56.029Z,96.8
2018-04-01T00:10:57.666Z,96.4
2018-04-01T00:11:59.253Z,96.6
2018-04-01T00:13:01.002Z,96.7
2018-04-01T00:14:02.599Z,96.7
2018-04-01T00:15:04.204Z,96.7
2018-04-01T00:16:05.832Z,96.4
2018-04-01T00:17:07.499Z,96.0
2018-04-01T00:18:09.161Z,96.1
2018-04-01T00:19:10.565Z,96.3
2018-04-01T00:20:12.311Z,96.4
2018-04-01T00:21:13.868Z,96.9
2018-04-01T00:22:15.312Z,96.6
2018-04-01T00:23:16.848Z,96.9
2018-04-01T00:24:18.544Z,96.6
2018-04-01T00:25:19.962Z,96.4
2018-04-01T00:26:21.409Z,96.3
2018-04-01T00:27:22.997Z,96.1
2018-04-01T00:28:24.441Z,96.2
2018-04-01T00:29:26.039Z,96.5
2018-04-01T00:30:27.584Z,96.5
2018-04-01T00:31:29.142Z,96.4
2018-04-01T00:32:30.806Z,96.5
2018-04-01T00:33:32.412Z,96.6
2018-04-01T00:34:34.104Z,96.6
2018-04-01T00:35:35.482Z,97.4
2018-04-01T00:36:37.208Z,97.3
2018-04-01T00:37:38.638Z,96.4
2018-04-01T00:38:40.083Z,96.9
2018-04-01T00:39:41.834Z,96.9
2018-04-01T00:40:43.261Z,96.8
2018-04-01T00:41:44.792Z,96.4
2018-04-01T00:42:46.203Z,96.7
2018-04-01T00:43:47.948Z,96.7
2018-04-01T00:44:49.323Z,96.8
2018-04-01T00:45:50.760Z,96.8
2018-04-01T00:46:52.364Z,96.6
2018-04-01T00:47:53.786Z,96.9
2018-04-01T00:48:55.214Z,96.9
2018-04-01T00:49:56.638Z,96.8
2018-04-01T00:50:58.032Z,96.4
2018-04-01T00:51:59.462Z,96.8
2018-04-01T00:53:00.892Z,96.6
2018-04-01T00:54:02.325Z,96.5
2018-04-01T00:55:04.045Z,96.3
2018-04-01T00:56:05.396Z,96.6
2018-04-01T00:57:07.306Z,96.5
2018-04-01T00:58:09.195Z,96.5
2018-04-01T00:59:11.311Z,96.3
2018-04-01T01:00:12.978Z,96.5
2018-04-01T01:01:14.667Z,96.4
2018-04-01T01:02:16.086Z,96.4
2018-04-01T01:03:17.686Z,96.2
2018-04-01T01:04:19.074Z,96.5
2018-04-01T01:05:20.473Z,96.1
2018-04-01T01:06:21.989Z,96.1
2018-04-01T01:07:23.404Z,96.0
2018-04-01T01:08:24.816Z,95.8
2018-04-01T01:09:26.199Z,95.6
2018-04-01T01:10:27.645Z,95.9
2018-04-01T01:11:29.065Z,95.6
2018-04-01T01:12:30.490Z,95.9
2018-04-01T01:13:31.868Z,95.6
2018-04-01T01:14:33.293Z,96.1
2018-04-01T01:15:34.720Z,96.0
2018-04-01T01:16:36.142Z,96.3
2018-04-01T01:17:37.569Z,96.8
2018-04-01T01:18:38.944Z,96.9
2018-04-01T01:19:40.424Z,96.6
2018-04-01T01:20:41.834Z,97.2
2018-04-01T01:21:43.301Z,97.2
2018-04-01T01:22:44.751Z,96.2
2018-04-01T01:23:46.197Z,96.6
2018-04-01T01:24:47.657Z,96.5
2018-04-01T01:25:49.081Z,96.3
2018-04-01T01:26:50.462Z,96.5
2018-04-01T01:27:51.907Z,96.3
2018-04-01T01:28:53.302Z,96.5
2018-04-01T01:29:54.717Z,96.6
2018-04-01T01:30:56.123Z,96.2
2018-04-01T01:31:57.508Z,96.6
2018-04-01T01:32:58.933Z,97.2
2018-04-01T01:34:00.348Z,97.2
2018-04-01T01:35:01.833Z,97.7
2018-04-01T01:36:03.276Z,97.7
2018-04-01T01:37:04.714Z,97.5
2018-04-01T01:38:06.150Z,97.1
2018-04-01T01:39:07.549Z,97.1
2018-04-01T01:40:08.970Z,97.4
2018-04-01T01:41:10.390Z,97.7
2018-04-01T01:42:11.862Z,98.0
2018-04-01T01:43:13.265Z,97.6
2018-04-01T01:44:14.657Z,97.2
2018-04-01T01:45:16.047Z,97.3
2018-04-01T01:46:17.471Z,97.0
2018-04-01T01:47:18.900Z,97.3
2018-04-01T01:48:20.327Z,97.3
2018-04-01T01:49:21.776Z,97.3
2018-04-01T01:50:23.179Z,96.9
2018-04-01T01:51:24.597Z,96.6
2018-04-01T01:52:26.011Z,96.7
2018-04-01T01:53:27.478Z,96.6
2018-04-01T01:54:28.901Z,96.6
2018-04-01T01:55:30.313Z,96.6
2018-04-01T01:56:31.765Z,96.6
2018-04-01T01:57:33.161Z,96.1
2018-04-01T01:58:34.552Z,95.9
2018-04-01T01:59:35.998Z,96.3
2018-04-01T02:00:37.478Z,96.7
2018-04-01T02:01:38.937Z,96.7
2018-04-01T02:02:40.365Z,96.3
2018-04-01T02:03:41.804Z,96.5
2018-04-01T02:04:43.280Z,95.7
2018-04-01T02:05:44.707Z,95.7
2018-04-01T02:06:46.159Z,95.6
2018-04-01T02:07:47.562Z,95.9
2018-04-01T02:08:48.967Z,95.7
2018-04-01T02:09:50.412Z,95.7
2018-04-01T02:10:51.804Z,95.8
2018-04-01T02:11:53.257Z,95.6
2018-04-01T02:12:54.717Z,95.6
2018-04-01T02:13:56.132Z,95.7
2018-04-01T02:14:57.577Z,95.0
2018-04-01T02:15:59.042Z,95.0
2018-04-01T02:17:00.441Z,94.1
2018-04-01T02:18:01.834Z,94.6
2018-04-01T02:19:03.280Z,94.9
2018-04-01T02:20:04.714Z,95.1
2018-04-01T02:21:06.125Z,95.1
2018-04-01T02:22:07.562Z,95.6
2018-04-01T02:23:09.019Z,96.0
2018-04-01T02:24:10.421Z,95.9
2018-04-01T02:25:11.813Z,96.1
2018-04-01T02:26:13.292Z,95.7
2018-04-01T02:27:14.692Z,96.1
2018-04-01T02:28:16.081Z,95.8
2018-04-01T02:29:17.528Z,96.0
2018-04-01T02:30:19.005Z,95.6
2018-04-01T02:31:20.412Z,95.6
2018-04-01T02:32:21.842Z,95.1
2018-04-01T02:33:23.288Z,95.3
2018-04-01T02:34:24.681Z,95.1
2018-04-01T02:35:26.107Z,95.6
2018-04-01T02:36:27.531Z,95.8
2018-04-01T02:37:28.967Z,95.4
2018-04-01T02:38:30.393Z,94.5
2018-04-01T02:39:31.820Z,94.6
2018-04-01T02:40:33.216Z,94.2
2018-04-01T02:41:34.614Z,94.5
2018-04-01T02:42:36.107Z,94.0
2018-04-01T02:43:37.551Z,94.3
2018-04-01T02:44:39.002Z,94.3
2018-04-01T02:45:40.441Z,94.2
2018-04-01T02:46:41.852Z,94.3
2018-04-01T02:47:43.336Z,93.9
2018-04-01T02:48:44.786Z,94.6
2018-04-01T02:49:46.179Z,94.5
2018-04-01T02:50:47.569Z,93.5
2018-04-01T02:51:48.980Z,93.5
2018-04-01T02:52:50.429Z,94.2
2018-04-01T02:53:51.847Z,93.5
2018-04-01T02:54:53.343Z,93.5
2018-04-01T02:55:54.788Z,93.8
2018-04-01T02:56:56.236Z,93.8
2018-04-01T02:57:57.662Z,93.5
2018-04-01T02:58:59.131Z,94.2
2018-04-01T03:00:00.555Z,94.4
2018-04-01T03:01:01.996Z,94.3
2018-04-01T03:02:03.441Z,94.3
2018-04-01T03:03:04.885Z,94.0
2018-04-01T03:04:06.569Z,94.2
2018-04-01T03:05:08.046Z,94.1
2018-04-01T03:06:09.448Z,94.1
2018-04-01T03:07:10.897Z,94.9
2018-04-01T03:08:12.324Z,94.4
2018-04-01T03:09:13.814Z,94.5
2018-04-01T03:10:15.222Z,94.6
2018-04-01T03:11:16.683Z,94.7
2018-04-01T03:12:18.100Z,94.5
2018-04-01T03:13:19.569Z,95.2
2018-04-01T03:14:21.019Z,94.7
2018-04-01T03:15:22.669Z,94.0
2018-04-01T03:16:24.121Z,94.4
2018-04-01T03:17:25.785Z,94.3
2018-04-01T03:18:27.212Z,94.5
2018-04-01T03:19:28.677Z,94.9
2018-04-01T03:20:30.153Z,95.5
2018-04-01T03:21:31.557Z,95.2
2018-04-01T03:22:32.958Z,94.8
2018-04-01T03:23:34.427Z,95.0
2018-04-01T03:24:35.883Z,95.0
2018-04-01T03:25:37.367Z,95.1
2018-04-01T03:26:38.825Z,95.2
2018-04-01T03:27:40.285Z,95.2
2018-04-01T03:28:41.743Z,95.6
2018-04-01T03:29:43.166Z,95.9
2018-04-01T03:30:44.673Z,95.4
2018-04-01T03:31:46.100Z,95.4
2018-04-01T03:32:47.554Z,95.1
2018-04-01T03:33:48.981Z,95.5
2018-04-01T03:34:50.406Z,95.6
2018-04-01T03:35:51.837Z,95.7
2018-04-01T03:36:53.303Z,95.9
2018-04-01T03:37:54.716Z,96.5
2018-04-01T03:38:56.183Z,96.5
2018-04-01T03:39:57.581Z,96.5
2018-04-01T03:40:59.050Z,96.5
2018-04-01T03:42:00.556Z,96.4
2018-04-01T03:43:01.967Z,96.6
2018-04-01T03:44:03.434Z,97.1
2018-04-01T03:45:04.879Z,96.9
2018-04-01T03:46:06.316Z,97.1
2018-04-01T03:47:07.762Z,96.6
2018-04-01T03:48:09.185Z,96.6
2018-04-01T03:49:10.603Z,96.4
2018-04-01T03:50:12.065Z,96.3
2018-04-01T03:51:13.777Z,95.9
2018-04-01T03:52:15.216Z,96.4
2018-04-01T03:53:16.677Z,96.4
2018-04-01T03:54:18.056Z,96.2
2018-04-01T03:55:19.484Z,96.0
2018-04-01T03:56:20.905Z,96.2
2018-04-01T03:57:22.330Z,96.0
2018-04-01T03:58:23.941Z,95.9
2018-04-01T03:59:25.337Z,96.5
2018-04-01T04:00:26.814Z,96.7
2018-04-01T04:01:28.220Z,96.9
2018-04-01T04:02:29.615Z,96.6
2018-04-01T04:03:31.072Z,96.8
2018-04-01T04:04:32.502Z,96.4
2018-04-01T04:05:33.941Z,96.5
2018-04-01T04:06:35.412Z,96.6
2018-04-01T04:07:36.819Z,96.1
2018-04-01T04:08:38.249Z,96.0
2018-04-01T04:09:39.666Z,95.9
2018-04-01T04:10:41.153Z,96.1
2018-04-01T04:11:42.588Z,95.8
2018-04-01T04:12:44.022Z,95.6
2018-04-01T04:13:45.408Z,95.5
2018-04-01T04:14:46.836Z,96.1
2018-04-01T04:15:48.217Z,96.1
2018-04-01T04:16:49.696Z,95.6
2018-04-01T04:17:51.118Z,95.5
2018-04-01T04:18:52.517Z,96.0
2018-04-01T04:19:53.942Z,95.9
2018-04-01T04:20:55.392Z,95.7
2018-04-01T04:21:56.859Z,96.2
2018-04-01T04:22:58.276Z,95.7
2018-04-01T04:23:59.666Z,95.7
2018-04-01T04:25:01.124Z,95.6
2018-04-01T04:26:02.487Z,95.2
2018-04-01T04:27:03.967Z,95.4
2018-04-01T04:28:05.395Z,95.2
2018-04-01T04:29:06.835Z,95.4
2018-04-01T04:30:08.280Z,95.1
2018-04-01T04:31:09.733Z,95.6
2018-04-01T04:32:11.274Z,95.6
2018-04-01T04:33:12.628Z,95.6
2018-04-01T04:34:14.089Z,95.8
2018-04-01T04:35:15.546Z,96.0
2018-04-01T04:36:16.970Z,96.4
2018-04-01T04:37:18.437Z,96.6
2018-04-01T04:38:19.867Z,96.5
2018-04-01T04:39:21.799Z,96.7
2018-04-01T04:40:23.622Z,96.7
2018-04-01T04:41:24.991Z,96.6
2018-04-01T04:42:26.429Z,97.0
2018-04-01T04:43:27.852Z,96.6
2018-04-01T04:44:29.303Z,96.6
2018-04-01T04:45:30.714Z,96.6
2018-04-01T04:46:32.162Z,97.0
2018-04-01T04:47:33.634Z,96.6
2018-04-01T04:48:35.072Z,97.0
2018-04-01T04:49:36.494Z,96.8
2018-04-01T04:50:37.962Z,96.8
2018-04-01T04:51:39.386Z,96.8
2018-04-01T04:52:40.869Z,97.0
2018-04-01T04:53:42.278Z,96.8
2018-04-01T04:54:43.716Z,96.6
2018-04-01T04:55:45.156Z,97.0
2018-04-01T04:56:46.527Z,96.7
2018-04-01T04:57:47.971Z,96.7
2018-04-01T04:58:49.382Z,96.6
2018-04-01T04:59:50.773Z,96.4
2018-04-01T05:00:52.177Z,96.6
2018-04-01T05:01:53.679Z,96.5
2018-04-01T05:02:55.140Z,96.5
2018-04-01T05:03:56.553Z,96.6
2018-04-01T05:04:57.982Z,96.2
2018-04-01T05:05:59.440Z,96.2
2018-04-01T05:07:00.836Z,95.9
2018-04-01T05:08:02.234Z,95.8
2018-04-01T05:09:03.690Z,96.0
2018-04-01T05:10:05.123Z,96.0
2018-04-01T05:11:06.578Z,96.3
2018-04-01T05:12:08.028Z,95.5
2018-04-01T05:13:09.475Z,95.6
2018-04-01T05:14:10.924Z,96.0
2018-04-01T05:15:12.313Z,96.2
2018-04-01T05:16:13.760Z,96.3
2018-04-01T05:17:15.236Z,95.6
2018-04-01T05:18:16.992Z,95.4
2018-04-01T05:19:18.861Z,95.4
2018-04-01T05:20:20.312Z,95.2
2018-04-01T05:21:21.793Z,95.2
2018-04-01T05:22:23.227Z,95.1
2018-04-01T05:23:24.622Z,95.3
2018-04-01T05:24:26.096Z,95.2
2018-04-01T05:25:27.506Z,95.2
2018-04-01T05:26:28.983Z,94.5
2018-04-01T05:27:30.461Z,95.0
2018-04-01T05:28:31.915Z,94.7
2018-04-01T05:29:33.404Z,94.7
2018-04-01T05:30:34.810Z,94.2
2018-04-01T05:31:36.340Z,94.7
2018-04-01T05:32:37.792Z,95.4
2018-04-01T05:33:39.802Z,94.9
2018-04-01T05:34:41.321Z,94.1
2018-04-01T05:35:42.766Z,94.2
2018-04-01T05:36:44.200Z,94.3
2018-04-01T05:37:45.927Z,94.9
2018-04-01T05:38:47.345Z,94.9
2018-04-01T05:39:48.809Z,94.1
2018-04-01T05:40:50.289Z,94.7
2018-04-01T05:41:51.762Z,94.5
2018-04-01T05:42:53.163Z,94.0
2018-04-01T05:43:54.587Z,94.4
2018-04-01T05:44:55.996Z,94.6
2018-04-01T05:45:57.461Z,94.2
2018-04-01T05:46:58.921Z,94.7
2018-04-01T05:48:00.421Z,94.6
2018-04-01T05:49:01.862Z,94.4
2018-04-01T05:50:03.282Z,93.6
2018-04-01T05:51:04.735Z,94.7
2018-04-01T05:52:06.139Z,94.3
2018-04-01T05:53:07.618Z,94.5
2018-04-01T05:54:09.139Z,94.7
2018-04-01T05:55:10.581Z,94.5
2018-04-01T05:56:12.045Z,94.7
2018-04-01T05:57:13.462Z,95.0
2018-04-01T05:58:14.864Z,94.7
2018-04-01T05:59:16.266Z,94.8
2018-04-01T06:00:17.719Z,94.9
2018-04-01T06:01:19.151Z,94.8
2018-04-01T06:02:20.561Z,95.0
2018-04-01T06:03:22.028Z,94.8
2018-04-01T06:04:23.482Z,94.5
2018-04-01T06:05:24.863Z,93.9
2018-04-01T06:06:26.285Z,93.4
2018-04-01T06:07:27.767Z,93.2
2018-04-01T06:08:29.199Z,92.7
2018-04-01T06:09:30.600Z,92.4
2018-04-01T06:10:32.073Z,92.2
2018-04-01T06:11:33.550Z,92.9
2018-04-01T06:12:34.939Z,92.8
2018-04-01T06:13:36.401Z,92.3
2018-04-01T06:14:37.823Z,91.8
2018-04-01T06:15:39.272Z,92.2
2018-04-01T06:16:40.744Z,90.9
2018-04-01T06:17:42.196Z,91.5
2018-04-01T06:18:43.628Z,91.1
2018-04-01T06:19:45.013Z,90.8
2018-04-01T06:20:46.470Z,90.2
2018-04-01T06:21:47.906Z,90.2
2018-04-01T06:22:49.390Z,89.2
2018-04-01T06:23:50.804Z,89.1
2018-04-01T06:24:52.360Z,89.3
2018-04-01T06:25:53.861Z,88.4
2018-04-01T06:26:55.286Z,88.9
2018-04-01T06:27:56.679Z,89.5
2018-04-01T06:28:58.067Z,89.9
2018-04-01T06:29:59.546Z,90.3
2018-04-01T06:31:00.986Z,90.7
2018-04-01T06:32:02.428Z,91.5
2018-04-01T06:33:03.879Z,91.7
2018-04-01T06:34:05.295Z,91.6
2018-04-01T06:35:06.792Z,90.9
2018-04-01T06:36:08.265Z,90.8
2018-04-01T06:37:09.692Z,91.6
2018-04-01T06:38:11.131Z,91.2
2018-04-01T06:39:12.592Z,91.2
2018-04-01T06:40:14.009Z,91.4
2018-04-01T06:41:15.484Z,91.3
2018-04-01T06:42:16.936Z,91.6
2018-04-01T06:43:18.324Z,91.9
2018-04-01T06:44:19.749Z,92.4
2018-04-01T06:45:21.178Z,92.5
2018-04-01T06:46:22.599Z,93.4
2018-04-01T06:47:24.096Z,93.2
2018-04-01T06:48:25.561Z,93.8
2018-04-01T06:49:26.946Z,93.4
2018-04-01T06:50:28.404Z,92.9
2018-04-01T06:51:29.861Z,93.3
2018-04-01T06:52:31.295Z,93.4
2018-04-01T06:53:32.707Z,93.3
2018-04-01T06:54:34.172Z,93.5
2018-04-01T06:55:35.599Z,93.4
2018-04-01T06:56:36.997Z,93.2
2018-04-01T06:57:38.488Z,93.8
2018-04-01T06:58:39.918Z,93.8
2018-04-01T06:59:41.401Z,93.8
2018-04-01T07:00:42.800Z,94.3
2018-04-01T07:01:44.290Z,94.4
2018-04-01T07:02:45.672Z,93.8
2018-04-01T07:03:47.101Z,94.4
2018-04-01T07:04:48.473Z,94.5
2018-04-01T07:05:49.915Z,93.8
2018-04-01T07:06:51.318Z,93.8
2018-04-01T07:07:52.747Z,94.0
2018-04-01T07:08:54.197Z,94.3
2018-04-01T07:09:55.648Z,94.3
2018-04-01T07:10:57.067Z,93.9
2018-04-01T07:11:58.454Z,94.0
2018-04-01T07:12:59.844Z,94.8
2018-04-01T07:14:01.229Z,94.0
2018-04-01T07:15:02.697Z,94.2
2018-04-01T07:16:04.129Z,94.6
2018-04-01T07:17:05.575Z,94.5
2018-04-01T07:18:07.030Z,95.1
2018-04-01T07:19:08.434Z,95.6
2018-04-01T07:20:09.874Z,95.8
2018-04-01T07:21:11.323Z,95.8
2018-04-01T07:22:12.709Z,96.0
2018-04-01T07:23:14.216Z,95.8
2018-04-01T07:24:15.714Z,96.0
2018-04-01T07:25:17.185Z,95.4
2018-04-01T07:26:18.645Z,95.4
2018-04-01T07:27:20.072Z,95.5
2018-04-01T07:28:21.524Z,96.0
2018-04-01T07:29:22.928Z,96.0
2018-04-01T07:30:24.352Z,96.3
2018-04-01T07:31:25.790Z,96.4
2018-04-01T07:32:27.241Z,96.3
2018-04-01T07:33:28.681Z,96.4
2018-04-01T07:34:30.151Z,96.3
2018-04-01T07:35:31.616Z,96.0
2018-04-01T07:36:33.133Z,96.6
2018-04-01T07:37:34.596Z,96.2
2018-04-01T07:38:36.047Z,96.7
2018-04-01T07:39:37.544Z,96.5
2018-04-01T07:40:38.998Z,96.6
2018-04-01T07:41:40.468Z,97.3
2018-04-01T07:42:41.941Z,97.2
2018-04-01T07:43:43.423Z,97.2
2018-04-01T07:44:44.899Z,97.7
2018-04-01T07:45:46.376Z,97.6
2018-04-01T07:46:47.806Z,97.9
2018-04-01T07:47:49.312Z,98.3
2018-04-01T07:48:50.748Z,98.5
2018-04-01T07:49:52.201Z,98.5
2018-04-01T07:50:53.648Z,98.6
2018-04-01T07:51:55.139Z,98.9
2018-04-01T07:52:56.596Z,98.5
2018-04-01T07:53:57.986Z,98.9
2018-04-01T07:54:59.540Z,99.8
2018-04-01T07:56:00.993Z,99.9
2018-04-01T07:57:02.435Z,99.5
2018-04-01T07:58:03.832Z,99.9
2018-04-01T07:59:05.319Z,99.7
2018-04-01T08:00:06.917Z,100.0
2018-04-01T08:01:08.440Z,100.0
2018-04-01T08:02:09.958Z,99.7
2018-04-01T08:03:11.379Z,100.0
2018-04-01T08:04:12.851Z,100.0
2018-04-01T08:05:14.335Z,100.0
2018-04-01T08:06:15.803Z,99.8
2018-04-01T08:07:17.275Z,99.9
2018-04-01T08:08:18.671Z,99.9
2018-04-01T08:09:20.119Z,99.0
2018-04-01T08:10:21.687Z,98.4
2018-04-01T08:11:23.183Z,99.4
2018-04-01T08:12:24.671Z,98.8
2018-04-01T08:13:26.139Z,98.7
2018-04-01T08:14:27.672Z,98.6
2018-04-01T08:15:29.200Z,98.2
2018-04-01T08:16:30.676Z,98.6
2018-04-01T08:17:32.190Z,98.2
2018-04-01T08:18:33.664Z,98.8
2018-04-01T08:19:35.383Z,98.1
2018-04-01T08:20:36.777Z,99.3
2018-04-01T08:21:38.480Z,98.3
2018-04-01T08:22:39.932Z,99.1
2018-04-01T08:23:41.376Z,99.1
2018-04-01T08:24:42.847Z,98.6
2018-04-01T08:25:44.310Z,98.6
2018-04-01T08:26:45.790Z,98.6
2018-04-01T08:27:47.263Z,98.7
2018-04-01T08:28:48.713Z,98.8
2018-04-01T08:29:50.229Z,98.2
2018-04-01T08:30:51.651Z,98.4
2018-04-01T08:31:53.393Z,98.3
2018-04-01T08:32:55.658Z,98.4
2018-04-01T08:33:57.088Z,98.8
2018-04-01T08:34:58.556Z,98.4
2018-04-01T08:36:00.058Z,98.3
2018-04-01T08:37:01.586Z,98.3
2018-04-01T08:38:04.752Z,98.4
2018-04-01T08:39:06.052Z,98.0
2018-04-01T08:40:07.588Z,98.1
2018-04-01T08:41:09.200Z,98.7
2018-04-01T08:42:10.681Z,99.1
2018-04-01T08:43:12.440Z,98.5
2018-04-01T08:44:14.093Z,98.5
2018-04-01T08:45:15.549Z,98.7
2018-04-01T08:46:17.032Z,98.7
2018-04-01T08:47:18.628Z,98.6
2018-04-01T08:48:20.343Z,99.3
2018-04-01T08:49:21.784Z,97.7
2018-04-01T08:50:23.270Z,98.5
2018-04-01T08:51:24.818Z,98.8
2018-04-01T08:52:26.345Z,98.7
2018-04-01T08:53:27.821Z,99.0
2018-04-01T08:54:29.339Z,98.6
2018-04-01T08:55:30.799Z,99.4
2018-04-01T08:56:32.382Z,99.5
2018-04-01T08:57:34.263Z,99.7
2018-04-01T08:58:35.961Z,100.0
2018-04-01T08:59:37.586Z,100.0
2018-04-01T09:00:39.382Z,99.9
2018-04-01T09:01:41.187Z,99.4
2018-04-01T09:02:42.910Z,99.4
2018-04-01T09:03:44.422Z,99.9
2018-04-01T09:04:45.845Z,100.0
2018-04-01T09:05:47.428Z,100.0
2018-04-01T09:06:49.874Z,100.0
2018-04-01T09:07:51.620Z,99.9
2018-04-01T09:08:53.403Z,99.8
2018-04-01T09:09:55.313Z,100.0
2018-04-01T09:10:57.285Z,99.8
2018-04-01T09:11:58.968Z,99.8
2018-04-01T09:13:00.543Z,99.6
2018-04-01T09:14:02.344Z,100.0
2018-04-01T09:15:04.075Z,100.0
2018-04-01T09:16:05.686Z,100.0
2018-04-01T09:17:07.134Z,100.0
2018-04-01T09:18:08.645Z,100.0
2018-04-01T09:19:11.494Z,100.0
2018-04-01T09:20:13.179Z,100.0
2018-04-01T09:21:14.694Z,100.0
2018-04-01T09:22:16.154Z,100.0
2018-04-01T09:23:17.651Z,100.0
2018-04-01T09:24:19.405Z,100.0
2018-04-01T09:25:20.926Z,100.0
2018-04-01T09:26:22.663Z,100.0
2018-04-01T09:27:24.391Z,100.0
2018-04-01T09:28:26.267Z,100.0
2018-04-01T09:29:27.737Z,100.0
2018-04-01T09:30:29.195Z,100.0
2018-04-01T09:31:30.830Z,100.0
2018-04-01T09:32:32.653Z,99.9
2018-04-01T09:33:34.390Z,100.0
2018-04-01T09:34:36.107Z,100.0
2018-04-01T09:35:37.994Z,100.0
2018-04-01T09:36:39.559Z,100.0
2018-04-01T09:37:41.135Z,100.0
2018-04-01T09:38:42.833Z,100.0
2018-04-01T09:39:44.723Z,100.0
2018-04-01T09:40:46.171Z,100.0
2018-04-01T09:41:47.671Z,100.0
2018-04-01T09:42:49.192Z,99.5
2018-04-01T09:43:50.594Z,99.8
2018-04-01T09:44:52.038Z,99.5
2018-04-01T09:45:53.479Z,99.5
2018-04-01T09:46:54.945Z,99.6
2018-04-01T09:47:56.405Z,99.3
2018-04-01T09:48:57.878Z,99.9
2018-04-01T09:49:59.351Z,98.6
2018-04-01T09:51:00.866Z,98.9
2018-04-01T09:52:02.389Z,98.5
2018-04-01T09:53:03.847Z,98.8
2018-04-01T09:54:05.460Z,99.4
2018-04-01T09:55:06.943Z,99.1
2018-04-01T09:56:08.380Z,99.1
2018-04-01T09:57:09.890Z,99.0
2018-04-01T09:58:11.330Z,98.9
2018-04-01T09:59:12.784Z,98.9
2018-04-01T10:00:14.216Z,98.5
2018-04-01T10:01:15.720Z,97.8
2018-04-01T10:02:17.160Z,96.6
2018-04-01T10:03:18.948Z,96.5
2018-04-01T10:04:20.305Z,96.6
2018-04-01T10:05:22.036Z,96.9
2018-04-01T10:06:24.672Z,97.6
2018-04-01T10:07:26.570Z,96.6
2018-04-01T10:08:28.011Z,96.6
2018-04-01T10:09:29.529Z,96.9
2018-04-01T10:10:31.588Z,97.8
2018-04-01T10:11:33.588Z,97.0
2018-04-01T10:12:35.409Z,96.6
2018-04-01T10:13:37.176Z,96.5
2018-04-01T10:14:38.653Z,96.6
2018-04-01T10:15:41.471Z,97.2
2018-04-01T10:16:43.180Z,97.1
2018-04-01T10:17:45.102Z,97.1
2018-04-01T10:18:46.647Z,97.8
2018-04-01T10:19:48.142Z,97.0
2018-04-01T10:20:49.585Z,97.4
2018-04-01T10:21:51.608Z,97.2
2018-04-01T10:22:53.028Z,96.9
2018-04-01T10:23:54.504Z,97.0
2018-04-01T10:24:55.980Z,95.9
2018-04-01T10:25:57.443Z,95.6
2018-04-01T10:26:58.910Z,95.1
2018-04-01T10:28:00.660Z,95.0
2018-04-01T10:29:02.506Z,95.6
2018-04-01T10:30:03.923Z,95.0
2018-04-01T10:31:05.435Z,95.0
2018-04-01T10:32:06.921Z,94.3
2018-04-01T10:33:08.462Z,93.4
2018-04-01T10:34:09.965Z,93.6
2018-04-01T10:35:11.437Z,93.4
2018-04-01T10:36:13.132Z,93.4
2018-04-01T10:37:14.613Z,93.7
2018-04-01T10:38:16.258Z,93.6
2018-04-01T10:39:17.959Z,92.6
2018-04-01T10:40:19.508Z,91.5
2018-04-01T10:41:21.144Z,92.5
2018-04-01T10:42:22.711Z,91.6
2018-04-01T10:43:24.208Z,90.9
2018-04-01T10:44:25.817Z,91.3
2018-04-01T10:45:27.591Z,91.1
2018-04-01T10:46:29.313Z,90.9
2018-04-01T10:47:30.939Z,91.7
2018-04-01T10:48:32.488Z,91.6
2018-04-01T10:49:34.732Z,91.5
2018-04-01T10:50:36.322Z,90.1
2018-04-01T10:51:38.188Z,90.3
2018-04-01T10:52:39.929Z,89.4
2018-04-01T10:53:41.426Z,89.0
2018-04-01T10:54:43.449Z,89.6
2018-04-01T10:55:45.702Z,89.1
2018-04-01T10:56:47.366Z,88.5
2018-04-01T10:57:48.851Z,87.4
2018-04-01T10:58:50.391Z,88.1
2018-04-01T10:59:51.912Z,88.1
2018-04-01T11:00:53.390Z,89.0
2018-04-01T11:01:55.030Z,88.2
2018-04-01T11:02:56.753Z,86.9
2018-04-01T11:03:58.245Z,87.1
2018-04-01T11:04:59.832Z,87.0
2018-04-01T11:06:01.358Z,86.5
2018-04-01T11:07:02.869Z,86.1
2018-04-01T11:08:04.468Z,85.7
2018-04-01T11:09:06.275Z,85.5
2018-04-01T11:10:07.841Z,85.7
2018-04-01T11:11:09.299Z,85.1
2018-04-01T11:12:10.730Z,84.9
2018-04-01T11:13:12.254Z,84.6
2018-04-01T11:14:13.757Z,84.6
2018-04-01T11:15:15.333Z,83.2
2018-04-01T11:16:16.770Z,82.3
2018-04-01T11:17:18.267Z,81.7
2018-04-01T11:18:19.854Z,81.6
2018-04-01T11:19:21.270Z,82.4
2018-04-01T11:20:23.003Z,83.0
2018-04-01T11:21:24.733Z,82.2
2018-04-01T11:22:26.152Z,82.6
2018-04-01T11:23:27.597Z,82.4
2018-04-01T11:24:29.017Z,83.4
2018-04-01T11:25:30.894Z,82.8
2018-04-01T11:26:32.367Z,83.0
2018-04-01T11:27:33.892Z,82.3
2018-04-01T11:28:35.454Z,82.3
2018-04-01T11:29:37.322Z,82.6
2018-04-01T11:30:38.899Z,82.6
2018-04-01T11:31:40.700Z,83.6
2018-04-01T11:32:42.845Z,83.7
2018-04-01T11:33:44.682Z,83.8
2018-04-01T11:34:46.253Z,83.5
2018-04-01T11:35:47.702Z,81.6
2018-04-01T11:36:49.200Z,81.0
2018-04-01T11:37:50.813Z,82.2
2018-04-01T11:38:52.512Z,82.0
2018-04-01T11:39:54.012Z,82.1
2018-04-01T11:40:55.745Z,83.0
2018-04-01T11:41:57.193Z,83.7
2018-04-01T11:42:58.695Z,83.5
2018-04-01T11:44:00.235Z,82.4
2018-04-01T11:45:01.784Z,82.1
2018-04-01T11:46:03.320Z,82.7
2018-04-01T11:47:04.757Z,81.5
2018-04-01T11:48:06.150Z,80.9
2018-04-01T11:49:07.683Z,80.4
2018-04-01T11:50:09.256Z,78.6
2018-04-01T11:51:10.818Z,78.5
2018-04-01T11:52:12.358Z,78.5
2018-04-01T11:53:13.824Z,78.9
2018-04-01T11:54:15.585Z,78.7
2018-04-01T11:55:17.594Z,80.0
2018-04-01T11:56:19.593Z,79.8
2018-04-01T11:57:21.609Z,78.6
2018-04-01T11:58:23.350Z,76.5
2018-04-01T11:59:25.366Z,76.5
2018-04-01T12:00:27.202Z,76.2
2018-04-01T12:01:29.142Z,75.9
2018-04-01T12:02:30.710Z,75.4
2018-04-01T12:03:32.316Z,74.8
2018-04-01T12:04:33.871Z,76.2
2018-04-01T12:05:35.395Z,77.7
2018-04-01T12:06:37.271Z,78.6
2018-04-01T12:07:40.122Z,78.4
2018-04-01T12:08:41.857Z,77.8
2018-04-01T12:09:43.305Z,77.8
2018-04-01T12:10:45.137Z,77.4
2018-04-01T12:11:46.920Z,77.6
2018-04-01T12:12:48.610Z,77.7
2018-04-01T12:13:50.301Z,76.5
2018-04-01T12:14:52.072Z,77.1
2018-04-01T12:15:53.677Z,76.6
2018-04-01T12:16:55.579Z,76.1
2018-04-01T12:17:57.885Z,76.3
2018-04-01T12:18:59.542Z,76.5
2018-04-01T12:20:01.155Z,77.4
2018-04-01T12:21:03.096Z,76.8
2018-04-01T12:22:04.693Z,76.3
2018-04-01T12:23:06.109Z,76.5
2018-04-01T12:24:07.696Z,74.1
2018-04-01T12:25:09.174Z,73.1
2018-04-01T12:26:10.767Z,72.4
2018-04-01T12:27:12.332Z,75.0
2018-04-01T12:28:13.840Z,73.5
2018-04-01T12:29:15.360Z,73.7
2018-04-01T12:30:16.886Z,73.0
2018-04-01T12:31:18.423Z,73.7
2018-04-01T12:32:19.837Z,73.4
2018-04-01T12:33:21.839Z,73.2
2018-04-01T12:34:23.333Z,73.2
2018-04-01T12:35:24.860Z,72.7
2018-04-01T12:36:26.369Z,73.5
2018-04-01T12:37:27.811Z,74.7
2018-04-01T12:38:29.353Z,73.7
2018-04-01T12:39:30.838Z,74.3
2018-04-01T12:40:32.436Z,73.6
2018-04-01T12:41:33.934Z,73.9
2018-04-01T12:42:35.515Z,73.7
2018-04-01T12:43:41.669Z,72.0
2018-04-01T12:44:43.722Z,73.1
2018-04-01T12:45:45.195Z,72.9
2018-04-01T12:46:46.801Z,72.8
2018-04-01T12:47:48.271Z,73.2
2018-04-01T12:48:51.166Z,74.1
2018-04-01T12:49:53.088Z,74.3
2018-04-01T12:50:54.825Z,74.2
2018-04-01T12:51:56.399Z,74.8
2018-04-01T12:52:57.865Z,74.3
2018-04-01T12:53:59.336Z,72.7
2018-04-01T12:55:01.162Z,72.5
2018-04-01T12:56:02.684Z,73.2
2018-04-01T12:57:05.692Z,73.7
2018-04-01T12:58:07.087Z,73.7
2018-04-01T12:59:08.595Z,73.6
2018-04-01T13:00:11.185Z,73.8
2018-04-01T13:01:12.718Z,74.5
2018-04-01T13:02:14.327Z,74.6
2018-04-01T13:03:16.012Z,74.2
2018-04-01T13:04:17.582Z,75.0
2018-04-01T13:05:19.245Z,74.6
2018-04-01T13:06:20.875Z,75.9
2018-04-01T13:07:22.897Z,75.0
2018-04-01T13:08:24.432Z,73.7
2018-04-01T13:09:26.330Z,73.5
2018-04-01T13:10:28.362Z,73.3
2018-04-01T13:11:29.889Z,73.5
2018-04-01T13:12:31.442Z,73.8
2018-04-01T13:13:33.245Z,74.1
2018-04-01T13:14:35.317Z,75.2
2018-04-01T13:15:36.800Z,76.3
2018-04-01T13:16:39.116Z,76.3
2018-04-01T13:17:40.590Z,76.2
2018-04-01T13:18:42.089Z,76.6
2018-04-01T13:19:43.530Z,77.0
2018-04-01T13:20:45.112Z,76.7
2018-04-01T13:21:46.589Z,77.0
2018-04-01T13:22:48.007Z,77.5
2018-04-01T13:23:49.434Z,77.8
2018-04-01T13:24:50.901Z,77.7
2018-04-01T13:25:52.414Z,77.7
2018-04-01T13:26:54.123Z,78.7
2018-04-01T13:27:56.049Z,79.7
2018-04-01T13:28:57.749Z,79.4
2018-04-01T13:29:59.227Z,79.7
2018-04-01T13:31:00.782Z,80.0
2018-04-01T13:32:02.343Z,80.6
2018-04-01T13:33:03.767Z,81.0
2018-04-01T13:34:05.237Z,80.8
2018-04-01T13:35:07.362Z,80.9
2018-04-01T13:36:08.786Z,80.7
2018-04-01T13:37:10.717Z,81.3
2018-04-01T13:38:12.246Z,81.6